SWA535 KPHX-KLAX
Flight info
| Callsign | SWA535 |
|---|---|
| Flight time | 0h 55m |
| Altitude | 36000 |
| Route | KEENS3 WLVRN ESTWD HLYWD1 |
| Aircraft | B737/M-SDE2E3FGHIRWXY/LB1 |
Departure
| Time | 2026-05-08 00:05 |
|---|---|
| Airport | Phoenix Sky Harbor International Airport (KPHX) |
Arrival
| Time | 2026-05-08 01:00 |
|---|---|
| Airport | Los Angeles International Airport (KLAX) |
| Time | Latitude | Longitude | Altitude | Speed | Heading |
|---|---|---|---|---|---|
| 2026-05-07 23:54 | 33.43405 | -111.99479 | 1130 ft | 0 kts | 86° |
| 2026-05-07 23:57 | 33.43404 | -111.99484 | 1138 ft | 4 kts | 88° |
| 2026-05-07 23:58 | 33.43408 | -111.99514 | 1135 ft | 4 kts | 122° |
| 2026-05-07 23:58 | 33.43425 | -111.99532 | 1130 ft | 3 kts | 177° |
| 2026-05-07 23:58 | 33.43429 | -111.99532 | 1130 ft | 1 kts | 180° |
| 2026-05-08 00:00 | 33.43420 | -111.99532 | 1130 ft | 3 kts | 180° |
| 2026-05-08 00:01 | 33.43393 | -111.99532 | 1130 ft | 5 kts | 180° |
| 2026-05-08 00:01 | 33.43358 | -111.99532 | 1130 ft | 5 kts | 179° |
| 2026-05-08 00:01 | 33.43325 | -111.99532 | 1133 ft | 5 kts | 178° |
| 2026-05-08 00:01 | 33.43294 | -111.99515 | 1131 ft | 6 kts | 136° |
| 2026-05-08 00:02 | 33.43282 | -111.99462 | 1131 ft | 8 kts | 90° |
| 2026-05-08 00:02 | 33.43282 | -111.99392 | 1133 ft | 8 kts | 90° |
| 2026-05-08 00:02 | 33.43282 | -111.99324 | 1130 ft | 8 kts | 90° |
| 2026-05-08 00:02 | 33.43278 | -111.99258 | 1130 ft | 8 kts | 109° |
| 2026-05-08 00:03 | 33.43234 | -111.99240 | 1133 ft | 8 kts | 206° |
| 2026-05-08 00:03 | 33.43194 | -111.99281 | 1135 ft | 7 kts | 222° |
| 2026-05-08 00:03 | 33.43158 | -111.99322 | 1137 ft | 7 kts | 223° |
| 2026-05-08 00:03 | 33.43120 | -111.99347 | 1137 ft | 4 kts | 189° |
| 2026-05-08 00:04 | 33.43104 | -111.99365 | 1135 ft | 4 kts | 259° |
| 2026-05-08 00:04 | 33.43104 | -111.99437 | 1134 ft | 30 kts | 270° |
| 2026-05-08 00:04 | 33.43105 | -112.00001 | 1133 ft | 104 kts | 270° |
| 2026-05-08 00:04 | 33.43105 | -112.01116 | 1193 ft | 156 kts | 269° |
| 2026-05-08 00:05 | 33.43081 | -112.02479 | 1721 ft | 171 kts | 266° |
| 2026-05-08 00:05 | 33.43032 | -112.03905 | 2409 ft | 176 kts | 266° |
| 2026-05-08 00:05 | 33.42978 | -112.05387 | 3049 ft | 185 kts | 267° |
| 2026-05-08 00:05 | 33.42909 | -112.07049 | 3290 ft | 214 kts | 263° |
| 2026-05-08 00:06 | 33.42474 | -112.08830 | 3595 ft | 233 kts | 248° |
| 2026-05-08 00:06 | 33.41832 | -112.10711 | 3865 ft | 259 kts | 249° |
| 2026-05-08 00:06 | 33.41163 | -112.12784 | 4404 ft | 272 kts | 250° |
| 2026-05-08 00:06 | 33.40503 | -112.14918 | 5215 ft | 273 kts | 251° |
| 2026-05-08 00:07 | 33.39851 | -112.17025 | 6253 ft | 270 kts | 250° |
| 2026-05-08 00:07 | 33.39232 | -112.19146 | 7116 ft | 274 kts | 257° |
| 2026-05-08 00:07 | 33.39214 | -112.21456 | 7822 ft | 283 kts | 281° |
| 2026-05-08 00:07 | 33.39591 | -112.23779 | 8754 ft | 287 kts | 282° |
| 2026-05-08 00:08 | 33.39999 | -112.26150 | 9639 ft | 294 kts | 283° |
| 2026-05-08 00:08 | 33.40392 | -112.28595 | 10352 ft | 306 kts | 283° |
| 2026-05-08 00:08 | 33.40784 | -112.31185 | 10763 ft | 329 kts | 282° |
| 2026-05-08 00:08 | 33.41190 | -112.33940 | 11485 ft | 335 kts | 282° |
| 2026-05-08 00:09 | 33.41569 | -112.36681 | 12592 ft | 334 kts | 282° |
| 2026-05-08 00:09 | 33.41959 | -112.39454 | 13430 ft | 340 kts | 284° |
| 2026-05-08 00:09 | 33.42381 | -112.42297 | 14035 ft | 354 kts | 284° |
| 2026-05-08 00:09 | 33.42829 | -112.45231 | 14737 ft | 363 kts | 284° |
| 2026-05-08 00:10 | 33.43284 | -112.48230 | 15495 ft | 370 kts | 283° |
| 2026-05-08 00:10 | 33.43730 | -112.51282 | 16376 ft | 374 kts | 283° |
| 2026-05-08 00:10 | 33.44184 | -112.54365 | 17181 ft | 380 kts | 282° |
| 2026-05-08 00:10 | 33.44639 | -112.57523 | 17895 ft | 389 kts | 282° |
| 2026-05-08 00:11 | 33.45085 | -112.60741 | 18662 ft | 394 kts | 279° |
| 2026-05-08 00:11 | 33.45204 | -112.64032 | 19487 ft | 397 kts | 272° |
| 2026-05-08 00:11 | 33.45171 | -112.67355 | 20188 ft | 404 kts | 271° |
| 2026-05-08 00:11 | 33.45136 | -112.70760 | 20822 ft | 409 kts | 272° |
| 2026-05-08 00:12 | 33.45170 | -112.74152 | 21756 ft | 407 kts | 274° |
| 2026-05-08 00:12 | 33.45229 | -112.77563 | 22486 ft | 412 kts | 274° |
| 2026-05-08 00:12 | 33.45556 | -112.80948 | 23224 ft | 408 kts | 290° |
| 2026-05-08 00:12 | 33.46581 | -112.84086 | 23946 ft | 405 kts | 297° |
| 2026-05-08 00:13 | 33.47700 | -112.87191 | 24533 ft | 408 kts | 298° |
| 2026-05-08 00:13 | 33.48837 | -112.90326 | 25099 ft | 413 kts | 298° |
| 2026-05-08 00:13 | 33.49979 | -112.93496 | 25674 ft | 416 kts | 298° |
| 2026-05-08 00:13 | 33.51120 | -112.96696 | 26259 ft | 419 kts | 298° |
| 2026-05-08 00:14 | 33.52261 | -112.99926 | 26828 ft | 423 kts | 298° |
| 2026-05-08 00:14 | 33.53405 | -113.03184 | 27363 ft | 426 kts | 297° |
| 2026-05-08 00:14 | 33.54550 | -113.06465 | 27958 ft | 428 kts | 297° |
| 2026-05-08 00:14 | 33.55702 | -113.09767 | 28524 ft | 431 kts | 297° |
| 2026-05-08 00:15 | 33.56862 | -113.13097 | 28999 ft | 435 kts | 298° |
| 2026-05-08 00:15 | 33.58033 | -113.16461 | 29482 ft | 439 kts | 298° |
| 2026-05-08 00:15 | 33.59205 | -113.19840 | 30077 ft | 438 kts | 298° |
| 2026-05-08 00:15 | 33.60371 | -113.23207 | 30718 ft | 436 kts | 298° |
| 2026-05-08 00:16 | 33.61531 | -113.26557 | 31307 ft | 434 kts | 298° |
| 2026-05-08 00:16 | 33.62689 | -113.29904 | 31805 ft | 434 kts | 298° |
| 2026-05-08 00:16 | 33.63848 | -113.33252 | 32290 ft | 435 kts | 298° |
| 2026-05-08 00:16 | 33.65006 | -113.36602 | 32799 ft | 434 kts | 298° |
| 2026-05-08 00:17 | 33.66159 | -113.39939 | 33326 ft | 433 kts | 298° |
| 2026-05-08 00:17 | 33.67311 | -113.43280 | 33788 ft | 432 kts | 298° |
| 2026-05-08 00:17 | 33.68454 | -113.46604 | 34387 ft | 429 kts | 298° |
| 2026-05-08 00:17 | 33.69587 | -113.49900 | 34919 ft | 425 kts | 297° |
| 2026-05-08 00:18 | 33.70714 | -113.53174 | 35362 ft | 423 kts | 297° |
| 2026-05-08 00:18 | 33.71836 | -113.56438 | 35737 ft | 423 kts | 297° |
| 2026-05-08 00:18 | 33.72960 | -113.59708 | 35977 ft | 426 kts | 297° |
| 2026-05-08 00:18 | 33.74099 | -113.63023 | 35944 ft | 430 kts | 297° |
| 2026-05-08 00:19 | 33.75234 | -113.66340 | 35840 ft | 427 kts | 297° |
| 2026-05-08 00:19 | 33.76354 | -113.69619 | 35850 ft | 422 kts | 297° |
| 2026-05-08 00:19 | 33.78561 | -113.76079 | 35850 ft | 421 kts | 297° |
| 2026-05-08 00:20 | 33.80788 | -113.82611 | 35865 ft | 423 kts | 297° |
| 2026-05-08 00:20 | 33.83013 | -113.89180 | 35865 ft | 425 kts | 296° |
| 2026-05-08 00:21 | 33.85239 | -113.95773 | 35855 ft | 426 kts | 297° |
| 2026-05-08 00:21 | 33.87459 | -114.02358 | 35852 ft | 425 kts | 297° |
| 2026-05-08 00:22 | 33.89672 | -114.08933 | 35835 ft | 423 kts | 297° |
| 2026-05-08 00:22 | 33.91461 | -114.15681 | 35859 ft | 426 kts | 287° |
| 2026-05-08 00:23 | 33.92573 | -114.22685 | 35847 ft | 426 kts | 285° |
| 2026-05-08 00:23 | 33.93654 | -114.29694 | 35846 ft | 425 kts | 285° |
| 2026-05-08 00:24 | 33.94797 | -114.36676 | 35841 ft | 425 kts | 286° |
| 2026-05-08 00:24 | 33.95970 | -114.43664 | 35829 ft | 426 kts | 286° |
| 2026-05-08 00:25 | 33.97149 | -114.50667 | 35841 ft | 427 kts | 286° |
| 2026-05-08 00:25 | 33.98326 | -114.57693 | 35836 ft | 428 kts | 286° |
| 2026-05-08 00:26 | 33.99501 | -114.64738 | 35834 ft | 429 kts | 286° |
| 2026-05-08 00:26 | 34.00670 | -114.71781 | 35832 ft | 429 kts | 285° |
| 2026-05-08 00:27 | 34.01838 | -114.78837 | 35835 ft | 429 kts | 285° |
| 2026-05-08 00:27 | 34.03000 | -114.85886 | 35835 ft | 429 kts | 285° |
| 2026-05-08 00:28 | 34.04157 | -114.92935 | 35838 ft | 428 kts | 285° |
| 2026-05-08 00:28 | 34.05311 | -114.99978 | 35832 ft | 428 kts | 285° |
| 2026-05-08 00:29 | 34.06459 | -115.07021 | 35830 ft | 428 kts | 285° |
| 2026-05-08 00:29 | 34.07604 | -115.14058 | 35834 ft | 427 kts | 285° |
| 2026-05-08 00:30 | 34.08744 | -115.21093 | 35839 ft | 428 kts | 285° |
| 2026-05-08 00:30 | 34.09882 | -115.28144 | 35842 ft | 428 kts | 285° |
| 2026-05-08 00:31 | 34.11017 | -115.35197 | 35837 ft | 428 kts | 284° |
| 2026-05-08 00:31 | 34.12136 | -115.42188 | 35832 ft | 427 kts | 284° |
| 2026-05-08 00:32 | 34.13258 | -115.49218 | 35836 ft | 426 kts | 284° |
| 2026-05-08 00:32 | 34.14372 | -115.56225 | 35838 ft | 424 kts | 284° |
| 2026-05-08 00:33 | 34.15479 | -115.63208 | 35839 ft | 424 kts | 284° |
| 2026-05-08 00:33 | 34.16368 | -115.70230 | 35819 ft | 427 kts | 269° |
| 2026-05-08 00:34 | 34.15659 | -115.77364 | 35869 ft | 429 kts | 265° |
| 2026-05-08 00:34 | 34.14893 | -115.84504 | 35891 ft | 430 kts | 266° |
| 2026-05-08 00:35 | 34.14186 | -115.91671 | 35925 ft | 430 kts | 266° |
| 2026-05-08 00:35 | 34.13488 | -115.98853 | 35932 ft | 431 kts | 266° |
| 2026-05-08 00:36 | 34.12785 | -116.06025 | 35921 ft | 426 kts | 266° |
| 2026-05-08 00:36 | 34.12436 | -116.09563 | 35398 ft | 426 kts | 266° |
| 2026-05-08 00:36 | 34.12086 | -116.13120 | 34870 ft | 427 kts | 266° |
| 2026-05-08 00:37 | 34.11736 | -116.16678 | 34292 ft | 428 kts | 266° |
| 2026-05-08 00:37 | 34.11382 | -116.20256 | 33649 ft | 431 kts | 266° |
| 2026-05-08 00:37 | 34.11025 | -116.23851 | 32976 ft | 432 kts | 266° |
| 2026-05-08 00:38 | 34.10303 | -116.31070 | 31630 ft | 434 kts | 265° |
| 2026-05-08 00:38 | 34.09923 | -116.34680 | 31112 ft | 433 kts | 265° |
| 2026-05-08 00:38 | 34.09536 | -116.38274 | 30571 ft | 432 kts | 265° |
| 2026-05-08 00:38 | 34.09147 | -116.41870 | 30047 ft | 431 kts | 265° |
| 2026-05-08 00:39 | 34.08760 | -116.45450 | 29434 ft | 430 kts | 265° |
| 2026-05-08 00:39 | 34.08375 | -116.49017 | 28833 ft | 427 kts | 265° |
| 2026-05-08 00:39 | 34.07994 | -116.52555 | 28340 ft | 423 kts | 265° |
| 2026-05-08 00:39 | 34.07616 | -116.56053 | 27802 ft | 419 kts | 265° |
| 2026-05-08 00:40 | 34.07242 | -116.59525 | 27277 ft | 415 kts | 265° |
| 2026-05-08 00:40 | 34.06903 | -116.62977 | 26781 ft | 415 kts | 266° |
| 2026-05-08 00:40 | 34.06693 | -116.65273 | 26453 ft | 418 kts | 266° |
| 2026-05-08 00:40 | 34.06380 | -116.68791 | 25942 ft | 425 kts | 266° |
| 2026-05-08 00:41 | 34.06059 | -116.72337 | 25417 ft | 425 kts | 266° |
| 2026-05-08 00:41 | 34.05733 | -116.75878 | 24924 ft | 424 kts | 265° |
| 2026-05-08 00:41 | 34.05403 | -116.79408 | 24386 ft | 424 kts | 266° |
| 2026-05-08 00:41 | 34.05072 | -116.82937 | 23853 ft | 423 kts | 266° |
| 2026-05-08 00:42 | 34.04741 | -116.86442 | 23305 ft | 418 kts | 265° |
| 2026-05-08 00:42 | 34.04408 | -116.89895 | 22741 ft | 412 kts | 265° |
| 2026-05-08 00:42 | 34.03986 | -116.93294 | 22218 ft | 407 kts | 263° |
| 2026-05-08 00:42 | 34.03526 | -116.96642 | 21696 ft | 402 kts | 263° |
| 2026-05-08 00:43 | 34.03079 | -116.99951 | 21197 ft | 398 kts | 263° |
| 2026-05-08 00:43 | 34.02646 | -117.03231 | 20713 ft | 395 kts | 263° |
| 2026-05-08 00:43 | 34.02245 | -117.06487 | 20224 ft | 391 kts | 264° |
| 2026-05-08 00:43 | 34.01867 | -117.09725 | 19750 ft | 389 kts | 264° |
| 2026-05-08 00:44 | 34.01494 | -117.12945 | 19271 ft | 387 kts | 264° |
| 2026-05-08 00:44 | 34.01118 | -117.16153 | 18785 ft | 386 kts | 264° |
| 2026-05-08 00:44 | 34.00740 | -117.19347 | 18335 ft | 384 kts | 264° |
| 2026-05-08 00:44 | 34.00360 | -117.22529 | 17790 ft | 383 kts | 263° |
| 2026-05-08 00:45 | 33.99981 | -117.25692 | 17295 ft | 380 kts | 264° |
| 2026-05-08 00:45 | 33.99603 | -117.28830 | 16784 ft | 377 kts | 264° |
| 2026-05-08 00:45 | 33.99230 | -117.31939 | 16294 ft | 374 kts | 264° |
| 2026-05-08 00:45 | 33.98868 | -117.35019 | 15846 ft | 369 kts | 263° |
| 2026-05-08 00:46 | 33.98511 | -117.38069 | 15388 ft | 366 kts | 264° |
| 2026-05-08 00:46 | 33.98157 | -117.41092 | 14938 ft | 363 kts | 263° |
| 2026-05-08 00:46 | 33.97803 | -117.44097 | 14486 ft | 361 kts | 264° |
| 2026-05-08 00:46 | 33.97452 | -117.47074 | 14042 ft | 357 kts | 264° |
| 2026-05-08 00:47 | 33.97466 | -117.50024 | 13532 ft | 349 kts | 283° |
| 2026-05-08 00:47 | 33.98078 | -117.52793 | 13124 ft | 338 kts | 288° |
| 2026-05-08 00:47 | 33.98748 | -117.55485 | 12677 ft | 334 kts | 288° |
| 2026-05-08 00:47 | 33.99412 | -117.58146 | 12260 ft | 329 kts | 288° |
| 2026-05-08 00:48 | 34.00052 | -117.60771 | 11851 ft | 325 kts | 288° |
| 2026-05-08 00:48 | 34.00674 | -117.63372 | 11447 ft | 321 kts | 288° |
| 2026-05-08 00:48 | 34.01280 | -117.65940 | 11046 ft | 317 kts | 288° |
| 2026-05-08 00:48 | 34.01857 | -117.68395 | 10665 ft | 308 kts | 287° |
| 2026-05-08 00:49 | 34.02152 | -117.70915 | 10258 ft | 302 kts | 268° |
| 2026-05-08 00:49 | 34.01918 | -117.73392 | 9933 ft | 293 kts | 264° |
| 2026-05-08 00:49 | 34.01662 | -117.75746 | 9784 ft | 275 kts | 266° |
| 2026-05-08 00:49 | 34.01418 | -117.78048 | 9263 ft | 274 kts | 264° |
| 2026-05-08 00:50 | 34.01188 | -117.80314 | 8855 ft | 269 kts | 266° |
| 2026-05-08 00:50 | 34.00970 | -117.82534 | 8513 ft | 266 kts | 265° |
| 2026-05-08 00:50 | 34.00753 | -117.84752 | 8175 ft | 266 kts | 265° |
| 2026-05-08 00:50 | 34.00538 | -117.86955 | 7843 ft | 264 kts | 266° |
| 2026-05-08 00:51 | 34.00324 | -117.89140 | 7511 ft | 262 kts | 265° |
| 2026-05-08 00:51 | 34.00111 | -117.91310 | 7170 ft | 259 kts | 265° |
| 2026-05-08 00:51 | 33.99901 | -117.93460 | 6841 ft | 258 kts | 264° |
| 2026-05-08 00:51 | 33.99709 | -117.95594 | 6524 ft | 255 kts | 267° |
| 2026-05-08 00:52 | 33.99586 | -117.97455 | 6219 ft | 250 kts | 266° |
| 2026-05-08 00:52 | 33.99419 | -117.99507 | 5899 ft | 243 kts | 265° |
| 2026-05-08 00:52 | 33.99228 | -118.01476 | 5629 ft | 230 kts | 264° |
| 2026-05-08 00:52 | 33.99036 | -118.03344 | 5300 ft | 220 kts | 264° |
| 2026-05-08 00:53 | 33.98849 | -118.05122 | 5051 ft | 208 kts | 264° |
| 2026-05-08 00:53 | 33.98672 | -118.06806 | 4756 ft | 198 kts | 264° |
| 2026-05-08 00:53 | 33.98502 | -118.08409 | 4486 ft | 188 kts | 264° |
| 2026-05-08 00:53 | 33.98342 | -118.09939 | 4242 ft | 181 kts | 265° |
| 2026-05-08 00:54 | 33.98186 | -118.11431 | 4023 ft | 178 kts | 265° |
| 2026-05-08 00:54 | 33.98032 | -118.12906 | 3852 ft | 178 kts | 264° |
| 2026-05-08 00:54 | 33.97877 | -118.14395 | 3691 ft | 182 kts | 264° |
| 2026-05-08 00:54 | 33.97718 | -118.15921 | 3644 ft | 183 kts | 264° |
| 2026-05-08 00:55 | 33.97560 | -118.17431 | 3592 ft | 180 kts | 264° |
| 2026-05-08 00:55 | 33.97405 | -118.18918 | 3517 ft | 182 kts | 264° |
| 2026-05-08 00:55 | 33.97247 | -118.20442 | 3306 ft | 182 kts | 264° |
| 2026-05-08 00:55 | 33.97090 | -118.21945 | 3070 ft | 180 kts | 264° |
| 2026-05-08 00:56 | 33.96940 | -118.23388 | 2850 ft | 181 kts | 264° |
| 2026-05-08 00:56 | 33.96786 | -118.24882 | 2614 ft | 179 kts | 263° |
| 2026-05-08 00:56 | 33.96633 | -118.26357 | 2373 ft | 176 kts | 263° |
| 2026-05-08 00:56 | 33.96487 | -118.27768 | 2148 ft | 161 kts | 263° |
| 2026-05-08 00:57 | 33.96378 | -118.28825 | 1992 ft | 145 kts | 262° |
| 2026-05-08 00:57 | 33.96269 | -118.29890 | 1831 ft | 137 kts | 262° |
| 2026-05-08 00:57 | 33.96157 | -118.30965 | 1618 ft | 131 kts | 260° |
| 2026-05-08 00:57 | 33.96040 | -118.32093 | 1447 ft | 138 kts | 261° |
| 2026-05-08 00:58 | 33.95926 | -118.33218 | 1290 ft | 134 kts | 261° |
| 2026-05-08 00:58 | 33.95814 | -118.34325 | 1121 ft | 132 kts | 261° |
| 2026-05-08 00:58 | 33.95697 | -118.35413 | 949 ft | 132 kts | 263° |
| 2026-05-08 00:58 | 33.95587 | -118.36512 | 784 ft | 133 kts | 261° |
| 2026-05-08 00:59 | 33.95476 | -118.37607 | 604 ft | 129 kts | 260° |
| 2026-05-08 00:59 | 33.95365 | -118.38662 | 410 ft | 129 kts | 261° |
| 2026-05-08 00:59 | 33.95259 | -118.39738 | 262 ft | 129 kts | 262° |
| 2026-05-08 00:59 | 33.95150 | -118.40800 | 128 ft | 124 kts | 260° |
| 2026-05-08 01:00 | 33.95060 | -118.41681 | 123 ft | 75 kts | 263° |
| 2026-05-08 01:00 | 33.95009 | -118.42169 | 125 ft | 45 kts | 263° |
| 2026-05-08 01:00 | 33.94974 | -118.42442 | 122 ft | 24 kts | 256° |
| 2026-05-08 01:00 | 33.94914 | -118.42589 | 123 ft | 16 kts | 233° |
| 2026-05-08 01:01 | 33.94845 | -118.42686 | 122 ft | 14 kts | 226° |
| 2026-05-08 01:01 | 33.94771 | -118.42755 | 122 ft | 13 kts | 210° |
| 2026-05-08 01:01 | 33.94685 | -118.42778 | 122 ft | 13 kts | 178° |
| 2026-05-08 01:01 | 33.94634 | -118.42710 | 123 ft | 12 kts | 86° |
| 2026-05-08 01:02 | 33.94645 | -118.42600 | 121 ft | 15 kts | 83° |
| 2026-05-08 01:02 | 33.94660 | -118.42451 | 121 ft | 21 kts | 83° |
| 2026-05-08 01:02 | 33.94680 | -118.42263 | 125 ft | 24 kts | 83° |
| 2026-05-08 01:02 | 33.94700 | -118.42069 | 125 ft | 23 kts | 83° |
| 2026-05-08 01:03 | 33.94719 | -118.41885 | 121 ft | 22 kts | 83° |
| 2026-05-08 01:03 | 33.94738 | -118.41703 | 125 ft | 21 kts | 83° |
| 2026-05-08 01:03 | 33.94755 | -118.41528 | 125 ft | 21 kts | 82° |
| 2026-05-08 01:03 | 33.94784 | -118.41360 | 125 ft | 20 kts | 75° |
| 2026-05-08 01:04 | 33.94803 | -118.41196 | 125 ft | 20 kts | 83° |
| 2026-05-08 01:04 | 33.94820 | -118.41036 | 121 ft | 19 kts | 84° |
| 2026-05-08 01:04 | 33.94837 | -118.40869 | 125 ft | 21 kts | 83° |
| 2026-05-08 01:04 | 33.94855 | -118.40689 | 125 ft | 21 kts | 83° |
| 2026-05-08 01:05 | 33.94873 | -118.40514 | 124 ft | 21 kts | 83° |
| 2026-05-08 01:05 | 33.94891 | -118.40344 | 123 ft | 20 kts | 83° |
| 2026-05-08 01:05 | 33.94907 | -118.40183 | 123 ft | 16 kts | 83° |
| 2026-05-08 01:05 | 33.94893 | -118.40088 | 120 ft | 10 kts | 150° |
| 2026-05-08 01:06 | 33.94844 | -118.40034 | 124 ft | 10 kts | 119° |
| 2026-05-08 01:06 | 33.94794 | -118.40007 | 122 ft | 6 kts | 188° |
| 2026-05-08 01:06 | 33.94774 | -118.40049 | 122 ft | 6 kts | 248° |
| 2026-05-08 01:06 | 33.94765 | -118.40067 | 124 ft | 1 kts | 240° |
| 2026-05-08 01:07 | 33.94765 | -118.40068 | 124 ft | 0 kts | 240° |